createdAt,value
2024-05-09T00:02:43.078Z,37.34
2024-05-09T00:06:44.673Z,37.76
2024-05-09T00:10:46.402Z,37.42
2024-05-09T00:14:48.258Z,37.36
2024-05-09T00:18:49.946Z,37.47
2024-05-09T00:22:51.900Z,37.65
2024-05-09T00:26:53.512Z,37.21
2024-05-09T00:30:55.152Z,37.36
2024-05-09T00:34:56.828Z,37.48
2024-05-09T00:38:58.511Z,37.81
2024-05-09T00:43:00.057Z,37.13
2024-05-09T00:47:01.672Z,37.25
2024-05-09T00:51:03.808Z,37.55
2024-05-09T00:55:07.645Z,37.08
2024-05-09T00:59:09.404Z,37.37
2024-05-09T01:03:13.172Z,37.14
2024-05-09T01:07:16.060Z,37.10
2024-05-09T01:11:18.490Z,36.92
2024-05-09T01:15:20.197Z,37.08
2024-05-09T01:19:30.362Z,36.95
2024-05-09T01:23:32.215Z,37.25
2024-05-09T01:27:33.896Z,37.05
2024-05-09T01:31:35.579Z,37.28
2024-05-09T01:35:37.449Z,37.18
2024-05-09T01:39:39.238Z,37.44
2024-05-09T01:43:40.791Z,36.95
2024-05-09T01:47:42.742Z,37.21
2024-05-09T01:51:44.478Z,37.25
2024-05-09T01:55:46.202Z,36.90
2024-05-09T01:59:47.839Z,37.39
2024-05-09T02:03:49.926Z,36.91
2024-05-09T02:07:51.632Z,37.11
2024-05-09T02:11:53.358Z,36.93
2024-05-09T02:15:56.067Z,36.89
2024-05-09T02:19:57.753Z,37.04
2024-05-09T02:23:59.515Z,36.92
2024-05-09T02:28:01.338Z,36.98
2024-05-09T02:32:03.069Z,37.31
2024-05-09T02:36:05.620Z,36.89
2024-05-09T02:40:11.704Z,37.20
2024-05-09T02:44:16.353Z,37.12
2024-05-09T02:48:18.125Z,36.92
2024-05-09T02:52:19.887Z,37.25
2024-05-09T02:56:21.532Z,36.73
2024-05-09T03:00:29.722Z,36.75
2024-05-09T03:04:38.970Z,36.67
2024-05-09T03:08:44.630Z,37.19
2024-05-09T03:12:46.254Z,36.64
2024-05-09T03:16:47.910Z,37.18
2024-05-09T03:20:49.641Z,37.06
2024-05-09T03:24:51.374Z,36.90
2024-05-09T03:28:52.940Z,36.84
2024-05-09T03:32:55.242Z,36.93
2024-05-09T03:36:56.920Z,36.67
2024-05-09T03:40:58.552Z,36.96
2024-05-09T03:45:00.192Z,37.02
2024-05-09T03:49:01.880Z,37.12
2024-05-09T03:53:03.859Z,37.06
2024-05-09T03:57:05.510Z,37.21
2024-05-09T04:01:07.122Z,36.94
2024-05-09T04:05:09.402Z,36.73
2024-05-09T04:09:10.977Z,36.80
2024-05-09T04:13:12.859Z,36.62
2024-05-09T04:17:14.546Z,37.07
2024-05-09T04:21:16.186Z,36.72
2024-05-09T04:25:17.795Z,36.92
2024-05-09T04:29:19.427Z,37.38
2024-05-09T04:33:21.177Z,37.15
2024-05-09T04:37:23.044Z,37.12
2024-05-09T04:41:24.666Z,37.09
2024-05-09T04:45:26.287Z,37.42
2024-05-09T04:49:27.952Z,37.12
2024-05-09T04:53:29.690Z,36.92
2024-05-09T04:57:31.270Z,37.36
2024-05-09T05:01:32.900Z,37.70
2024-05-09T05:05:34.673Z,37.60
2024-05-09T05:09:36.428Z,37.42
2024-05-09T05:13:40.847Z,37.67
2024-05-09T05:17:43.365Z,37.97
2024-05-09T05:21:45.108Z,37.59
2024-05-09T05:25:48.523Z,38.06
2024-05-09T05:29:50.377Z,38.05
2024-05-09T05:33:52.095Z,38.25
2024-05-09T05:37:53.766Z,38.28
2024-05-09T05:41:55.374Z,38.27
2024-05-09T05:45:56.950Z,38.63
2024-05-09T05:49:58.536Z,38.43
2024-05-09T05:54:00.135Z,38.62
2024-05-09T05:58:02.583Z,39.40
2024-05-09T06:02:04.419Z,39.08
2024-05-09T06:06:07.282Z,39.39
2024-05-09T06:10:17.247Z,39.21
2024-05-09T06:14:23.201Z,39.08
2024-05-09T06:18:25.354Z,39.61
2024-05-09T06:22:27.043Z,39.34
2024-05-09T06:26:28.757Z,40.14
2024-05-09T06:30:38.388Z,39.90
2024-05-09T06:34:43.135Z,40.07
2024-05-09T06:38:44.954Z,40.36
2024-05-09T06:42:46.663Z,40.19
2024-05-09T06:46:48.325Z,40.39
2024-05-09T06:50:50.566Z,40.24
2024-05-09T06:54:52.359Z,40.48
2024-05-09T06:58:54.460Z,40.28
2024-05-09T07:02:56.258Z,40.69
2024-05-09T07:06:58.026Z,40.89
2024-05-09T07:11:00.694Z,40.74
2024-05-09T07:15:02.348Z,40.62
2024-05-09T07:19:04.190Z,40.83
2024-05-09T07:23:09.100Z,40.99
2024-05-09T07:27:10.762Z,40.86
2024-05-09T07:31:12.421Z,40.57
2024-05-09T07:35:14.240Z,41.52
2024-05-09T07:39:15.909Z,41.54
2024-05-09T07:43:17.591Z,41.59
2024-05-09T07:48:29.094Z,41.64
2024-05-09T07:55:45.431Z,41.55
2024-05-09T07:59:47.129Z,41.91
2024-05-09T08:03:48.982Z,42.23
2024-05-09T08:07:50.975Z,41.91
2024-05-09T08:11:52.882Z,42.02
2024-05-09T08:15:54.612Z,42.21
2024-05-09T08:19:56.967Z,42.62
2024-05-09T08:23:58.526Z,42.76
2024-05-09T08:28:00.201Z,43.13
2024-05-09T08:32:02.082Z,42.85
2024-05-09T08:36:03.901Z,43.16
2024-05-09T08:40:08.446Z,43.05
2024-05-09T08:44:10.269Z,43.57
2024-05-09T08:48:14.141Z,43.45
2024-05-09T08:52:17.832Z,43.65
2024-05-09T08:56:20.677Z,43.60
2024-05-09T09:00:33.403Z,43.22
2024-05-09T09:04:40.461Z,42.88
2024-05-09T09:08:42.471Z,43.56
2024-05-09T09:12:44.559Z,43.34
2024-05-09T09:16:46.376Z,43.47
2024-05-09T09:20:47.980Z,43.96
2024-05-09T09:24:49.604Z,44.17
2024-05-09T09:28:51.802Z,44.34
2024-05-09T09:32:55.155Z,44.36
2024-05-09T09:37:03.583Z,44.65
2024-05-09T09:41:07.638Z,44.69
2024-05-09T09:45:10.795Z,45.08
2024-05-09T09:49:12.711Z,44.72
2024-05-09T09:53:16.060Z,44.04
2024-05-09T09:57:19.511Z,44.44
2024-05-09T10:01:21.352Z,45.34
2024-05-09T10:05:23.456Z,45.35
2024-05-09T10:09:26.010Z,44.92
2024-05-09T10:13:34.967Z,44.62
2024-05-09T10:17:42.385Z,44.76
2024-05-09T10:21:47.258Z,44.75
2024-05-09T10:26:05.507Z,44.26
2024-05-09T10:30:14.392Z,44.19
2024-05-09T10:34:23.997Z,44.19
2024-05-09T10:38:26.349Z,44.46
2024-05-09T10:42:29.123Z,44.34
2024-05-09T10:46:30.960Z,44.20
2024-05-09T10:50:34.464Z,43.60
2024-05-09T10:54:39.673Z,44.04
2024-05-09T10:58:41.858Z,43.51
2024-05-09T11:02:44.175Z,43.43
2024-05-09T11:06:47.037Z,43.92
2024-05-09T11:10:54.160Z,43.60
2024-05-09T11:14:55.884Z,43.57
2024-05-09T11:18:58.940Z,44.46
2024-05-09T11:23:05.204Z,44.70
2024-05-09T11:27:06.900Z,44.32
2024-05-09T11:31:10.087Z,44.51
2024-05-09T11:35:12.433Z,44.56
2024-05-09T11:39:14.732Z,44.04
2024-05-09T11:43:16.805Z,44.48
2024-05-09T11:47:18.675Z,45.06
2024-05-09T11:51:20.302Z,45.42
2024-05-09T11:55:26.734Z,44.81
2024-05-09T11:59:30.378Z,45.23
2024-05-09T12:03:32.296Z,44.69
2024-05-09T12:07:34.164Z,45.14
2024-05-09T12:11:36.153Z,44.94
2024-05-09T12:15:38.924Z,44.76
2024-05-09T12:19:41.095Z,45.41
2024-05-09T12:23:42.826Z,44.81
2024-05-09T12:27:44.568Z,44.89
2024-05-09T12:31:46.623Z,44.62
2024-05-09T12:35:50.732Z,44.90
2024-05-09T12:39:52.772Z,45.40
2024-05-09T12:43:54.359Z,45.52
2024-05-09T12:47:56.143Z,45.39
2024-05-09T12:51:57.890Z,45.40
2024-05-09T12:56:02.373Z,44.99
2024-05-09T13:00:09.297Z,45.36
2024-05-09T13:04:13.274Z,45.19
2024-05-09T13:08:15.479Z,44.82
2024-05-09T13:12:17.240Z,44.89
2024-05-09T13:16:19.040Z,44.81
2024-05-09T13:20:29.170Z,44.81
2024-05-09T13:24:34.784Z,44.90
2024-05-09T13:28:36.450Z,44.63
2024-05-09T13:32:38.139Z,45.16
2024-05-09T13:36:39.926Z,45.07
2024-05-09T13:40:41.857Z,44.78
2024-05-09T13:44:43.649Z,44.84
2024-05-09T13:48:45.494Z,44.49
2024-05-09T13:52:47.203Z,44.39
2024-05-09T13:56:49.283Z,44.44
2024-05-09T14:00:51.138Z,44.26
2024-05-09T14:04:52.905Z,44.55
2024-05-09T14:08:54.611Z,44.47
2024-05-09T14:12:56.321Z,44.66
2024-05-09T14:16:58.180Z,44.78
2024-05-09T14:20:59.841Z,44.67
2024-05-09T14:25:01.471Z,44.96
2024-05-09T14:29:03.124Z,44.74
2024-05-09T14:33:06.216Z,44.55
2024-05-09T14:37:09.279Z,44.52
2024-05-09T14:41:13.214Z,44.50
2024-05-09T14:45:15.006Z,44.39
2024-05-09T14:49:17.348Z,44.36
2024-05-09T14:53:19.364Z,44.39
2024-05-09T14:57:21.122Z,44.25
2024-05-09T15:01:24.042Z,44.30
2024-05-09T15:05:25.837Z,44.38
2024-05-09T15:09:34.727Z,44.38
2024-05-09T15:13:36.597Z,43.89
2024-05-09T15:17:39.240Z,43.96
2024-05-09T15:21:40.913Z,44.38
2024-05-09T15:25:44.607Z,44.38
2024-05-09T15:29:46.355Z,44.43
2024-05-09T15:33:48.111Z,44.47
2024-05-09T15:37:49.921Z,44.20
2024-05-09T15:41:56.467Z,44.22
2024-05-09T15:45:58.087Z,44.30
2024-05-09T15:50:00.089Z,44.19
2024-05-09T15:54:01.819Z,44.30
2024-05-09T15:58:04.786Z,44.31
2024-05-09T16:02:07.797Z,44.56
2024-05-09T16:06:09.699Z,43.92
2024-05-09T16:10:16.148Z,44.36
2024-05-09T16:14:22.215Z,44.46
2024-05-09T16:18:23.988Z,44.30
2024-05-09T16:22:25.722Z,44.17
2024-05-09T16:26:27.536Z,44.08
2024-05-09T16:30:34.790Z,44.11
2024-05-09T16:34:38.513Z,44.26
2024-05-09T16:38:41.429Z,44.23
2024-05-09T16:42:43.086Z,44.04
2024-05-09T16:46:44.847Z,44.16
2024-05-09T16:50:46.433Z,44.18
2024-05-09T16:54:48.023Z,44.04
2024-05-09T16:58:49.886Z,44.16
2024-05-09T17:02:54.262Z,44.14
2024-05-09T17:06:56.526Z,44.16
2024-05-09T17:10:58.512Z,44.16
2024-05-09T17:15:00.460Z,44.13
2024-05-09T17:19:02.230Z,43.70
2024-05-09T17:23:05.861Z,44.14
2024-05-09T17:27:08.838Z,44.27
2024-05-09T17:31:10.992Z,44.27
2024-05-09T17:35:12.769Z,44.43
2024-05-09T17:39:14.424Z,44.07
2024-05-09T17:43:16.134Z,44.19
2024-05-09T17:47:17.983Z,44.10
2024-05-09T17:51:19.965Z,44.11
2024-05-09T17:55:21.726Z,43.95
2024-05-09T17:59:23.328Z,44.19
2024-05-09T18:03:25.004Z,43.91
2024-05-09T18:07:27.317Z,43.92
2024-05-09T18:11:28.992Z,44.03
2024-05-09T18:15:30.825Z,44.14
2024-05-09T18:19:32.610Z,44.02
2024-05-09T18:23:34.880Z,43.90
2024-05-09T18:27:36.645Z,43.51
2024-05-09T18:31:38.283Z,43.96
2024-05-09T18:35:42.865Z,43.94
2024-05-09T18:39:44.521Z,43.83
2024-05-09T18:43:50.228Z,43.97
2024-05-09T18:47:53.241Z,43.87
2024-05-09T18:51:55.021Z,43.89
2024-05-09T18:55:57.588Z,44.16
2024-05-09T18:59:59.772Z,44.12
2024-05-09T19:04:01.591Z,43.60
2024-05-09T19:08:03.615Z,43.54
2024-05-09T19:12:06.342Z,43.80
2024-05-09T19:16:08.096Z,43.81
2024-05-09T19:20:20.508Z,43.64
2024-05-09T19:24:29.877Z,43.56
2024-05-09T19:28:31.488Z,43.51
2024-05-09T19:32:33.152Z,43.87
2024-05-09T19:36:35.382Z,43.42
2024-05-09T19:40:37.188Z,43.26
2024-05-09T19:44:38.926Z,43.17
2024-05-09T19:48:41.024Z,43.34
2024-05-09T19:52:43.118Z,43.59
2024-05-09T19:56:45.347Z,43.28
2024-05-09T20:00:47.816Z,43.34
2024-05-09T20:04:50.714Z,43.33
2024-05-09T20:08:57.081Z,43.33
2024-05-09T20:12:58.859Z,43.10
2024-05-09T20:17:01.306Z,43.08
2024-05-09T20:21:03.036Z,43.07
2024-05-09T20:25:05.592Z,42.92
2024-05-09T20:29:07.224Z,42.91
2024-05-09T20:33:09.876Z,43.01
2024-05-09T20:37:12.098Z,43.03
2024-05-09T20:41:13.728Z,43.23
2024-05-09T20:45:15.486Z,42.76
2024-05-09T20:49:17.664Z,43.08
2024-05-09T20:53:19.454Z,42.62
2024-05-09T20:57:21.075Z,42.04
2024-05-09T21:01:22.766Z,42.48
2024-05-09T21:05:24.445Z,42.48
2024-05-09T21:09:27.956Z,42.36
2024-05-09T21:13:29.577Z,41.68
2024-05-09T21:17:31.292Z,41.41
2024-05-09T21:21:39.329Z,41.54
2024-05-09T21:25:41.061Z,41.80
2024-05-09T21:29:42.644Z,42.14
2024-05-09T21:33:44.383Z,42.33
2024-05-09T21:37:46.147Z,42.20
2024-05-09T21:41:47.723Z,41.59
2024-05-09T21:45:49.358Z,41.15
2024-05-09T21:49:51.024Z,40.97
2024-05-09T21:53:52.610Z,41.07
2024-05-09T21:57:54.202Z,40.75
2024-05-09T22:01:56.079Z,40.61
2024-05-09T22:05:57.762Z,40.69
2024-05-09T22:09:59.461Z,40.45
2024-05-09T22:14:01.079Z,40.23
2024-05-09T22:18:02.902Z,40.36
2024-05-09T22:22:04.861Z,39.83
2024-05-09T22:26:06.463Z,40.35
2024-05-09T22:30:11.926Z,40.23
2024-05-09T22:34:19.253Z,39.45
2024-05-09T22:38:20.968Z,39.92
2024-05-09T22:42:22.537Z,39.44
2024-05-09T22:46:24.192Z,40.07
2024-05-09T22:50:27.216Z,39.75
2024-05-09T22:54:34.212Z,39.93
2024-05-09T22:58:35.840Z,40.12
2024-05-09T23:02:38.009Z,39.87
2024-05-09T23:06:42.746Z,40.31
2024-05-09T23:10:44.456Z,40.33
2024-05-09T23:14:46.763Z,40.17
2024-05-09T23:18:48.567Z,40.07
2024-05-09T23:22:50.479Z,40.09
2024-05-09T23:26:52.153Z,40.21
2024-05-09T23:30:53.733Z,40.63
2024-05-09T23:34:55.463Z,40.07
2024-05-09T23:38:57.118Z,40.28
2024-05-09T23:42:58.832Z,40.34
2024-05-09T23:47:00.548Z,40.36
2024-05-09T23:51:02.229Z,40.03
2024-05-09T23:55:04.262Z,39.69
2024-05-09T23:59:06.316Z,40.30
